createdAt,value
2023-03-20T00:00:09.242Z,5.27
2023-03-20T00:02:30.829Z,6.30
2023-03-20T00:04:52.337Z,5.80
2023-03-20T00:07:13.829Z,5.37
2023-03-20T00:09:35.556Z,5.87
2023-03-20T00:11:57.123Z,5.20
2023-03-20T00:14:22.308Z,5.20
2023-03-20T00:16:45.856Z,5.73
2023-03-20T00:19:16.379Z,5.33
2023-03-20T00:21:37.881Z,5.30
2023-03-20T00:23:59.347Z,5.47
2023-03-20T00:26:25.709Z,5.80
2023-03-20T00:28:48.811Z,5.00
2023-03-20T00:31:33.040Z,5.70
2023-03-20T00:33:57.261Z,5.10
2023-03-20T00:36:18.831Z,5.10
2023-03-20T00:38:40.260Z,4.80
2023-03-20T00:41:01.951Z,5.07
2023-03-20T00:43:24.205Z,6.17
2023-03-20T00:45:46.512Z,5.37
2023-03-20T00:48:13.126Z,5.67
2023-03-20T00:50:34.815Z,5.57
2023-03-20T00:52:57.984Z,5.60
2023-03-20T00:55:22.031Z,4.90
2023-03-20T00:57:54.039Z,5.33
2023-03-20T01:00:39.633Z,4.87
2023-03-20T01:03:06.016Z,5.00
2023-03-20T01:05:29.112Z,3.80
2023-03-20T01:07:51.106Z,3.73
2023-03-20T01:10:13.677Z,3.67
2023-03-20T01:12:35.396Z,3.50
2023-03-20T01:14:58.687Z,3.30
2023-03-20T01:17:24.415Z,3.70
2023-03-20T01:19:46.323Z,4.17
2023-03-20T01:22:07.984Z,3.80
2023-03-20T01:24:29.426Z,4.27
2023-03-20T01:26:52.735Z,4.00
2023-03-20T01:29:16.927Z,4.20
2023-03-20T01:31:38.773Z,4.23
2023-03-20T01:34:00.228Z,4.73
2023-03-20T01:36:23.521Z,4.10
2023-03-20T01:38:45.340Z,4.70
2023-03-20T01:41:12.839Z,4.83
2023-03-20T01:43:35.898Z,4.00
2023-03-20T01:46:02.893Z,4.70
2023-03-20T01:48:27.634Z,5.00
2023-03-20T01:50:49.155Z,4.80
2023-03-20T01:53:20.195Z,5.20
2023-03-20T01:55:43.566Z,4.90
2023-03-20T01:58:10.329Z,5.47
2023-03-20T02:00:32.149Z,4.97
2023-03-20T02:02:54.972Z,4.90
2023-03-20T02:05:20.298Z,4.83
2023-03-20T02:07:45.655Z,5.00
2023-03-20T02:10:14.505Z,5.60
2023-03-20T02:12:36.434Z,4.73
2023-03-20T02:14:58.708Z,5.07
2023-03-20T02:17:20.521Z,5.10
2023-03-20T02:20:14.564Z,4.80
2023-03-20T02:22:47.952Z,4.67
2023-03-20T02:25:34.671Z,5.07
2023-03-20T02:28:33.341Z,4.80
2023-03-20T02:31:14.688Z,5.00
2023-03-20T02:34:02.135Z,5.17
2023-03-20T02:36:38.816Z,5.37
2023-03-20T02:39:06.520Z,5.40
2023-03-20T02:41:32.965Z,5.07
2023-03-20T02:44:22.954Z,6.50
2023-03-20T02:47:07.939Z,5.90
2023-03-20T02:49:54.191Z,6.50
2023-03-20T02:52:44.642Z,5.87
2023-03-20T02:55:16.804Z,6.90
2023-03-20T02:57:45.829Z,7.37
2023-03-20T03:00:15.804Z,7.73
2023-03-20T03:02:42.742Z,8.63
2023-03-20T03:05:11.273Z,8.87
2023-03-20T03:07:35.405Z,9.23
2023-03-20T03:10:01.613Z,9.30
2023-03-20T03:12:32.173Z,9.60
2023-03-20T03:14:57.022Z,8.10
2023-03-20T03:17:22.253Z,6.23
2023-03-20T03:19:50.959Z,8.73
2023-03-20T03:22:12.674Z,8.13
2023-03-20T03:24:41.419Z,8.67
2023-03-20T03:27:13.496Z,7.57
2023-03-20T03:29:37.341Z,7.73
2023-03-20T03:31:58.911Z,5.50
2023-03-20T03:34:22.624Z,6.90
2023-03-20T03:36:54.884Z,7.43
2023-03-20T03:39:38.275Z,8.33
2023-03-20T03:42:33.972Z,6.70
2023-03-20T03:45:15.078Z,5.80
2023-03-20T03:47:54.154Z,5.37
2023-03-20T03:50:53.493Z,6.10
2023-03-20T03:53:20.281Z,7.43
2023-03-20T03:55:46.011Z,5.80
2023-03-20T03:58:16.271Z,5.80
2023-03-20T04:00:42.233Z,5.40
2023-03-20T04:03:06.253Z,7.10
2023-03-20T04:05:33.252Z,5.43
2023-03-20T04:07:58.245Z,5.40
2023-03-20T04:10:19.745Z,5.87
2023-03-20T04:12:43.470Z,7.83
2023-03-20T04:15:05.549Z,10.70
2023-03-20T04:17:27.068Z,11.90
2023-03-20T04:19:48.596Z,11.63
2023-03-20T04:22:10.370Z,10.90
2023-03-20T04:24:31.818Z,9.70
2023-03-20T04:26:53.325Z,10.23
2023-03-20T04:29:16.030Z,14.23
2023-03-20T04:31:37.522Z,12.27
2023-03-20T04:33:59.059Z,15.43
2023-03-20T04:36:20.881Z,15.87
2023-03-20T04:38:50.608Z,16.73
2023-03-20T04:41:12.153Z,16.73
2023-03-20T04:43:33.669Z,16.47
2023-03-20T04:45:55.311Z,15.67
2023-03-20T04:48:16.840Z,16.83
2023-03-20T04:50:38.410Z,16.27
2023-03-20T04:52:59.954Z,16.20
2023-03-20T04:55:22.457Z,16.70
2023-03-20T04:57:43.938Z,17.17
2023-03-20T05:00:06.076Z,17.57
2023-03-20T05:02:27.653Z,17.13
2023-03-20T05:04:49.138Z,16.67
2023-03-20T05:07:10.841Z,16.93
2023-03-20T05:09:32.296Z,17.50
2023-03-20T05:11:53.746Z,16.57
2023-03-20T05:14:15.377Z,16.83
2023-03-20T05:16:36.889Z,16.83
2023-03-20T05:18:58.564Z,16.63
2023-03-20T05:21:20.080Z,16.73
2023-03-20T05:23:41.546Z,15.00
2023-03-20T05:26:03.197Z,14.73
2023-03-20T05:28:24.832Z,15.87
2023-03-20T05:30:46.343Z,15.70
2023-03-20T05:33:08.223Z,15.87
2023-03-20T05:35:29.987Z,16.00
2023-03-20T05:37:51.446Z,15.33
2023-03-20T05:40:15.776Z,16.30
2023-03-20T05:42:37.228Z,15.17
2023-03-20T05:44:58.678Z,15.13
2023-03-20T05:47:20.604Z,15.50
2023-03-20T05:49:42.046Z,16.67
2023-03-20T05:52:03.618Z,16.60
2023-03-20T05:54:25.283Z,16.23
2023-03-20T05:56:47.043Z,16.90
2023-03-20T05:59:08.644Z,16.83
2023-03-20T06:01:30.262Z,17.87
2023-03-20T06:03:51.853Z,18.70
2023-03-20T06:06:13.398Z,18.60
2023-03-20T06:08:36.483Z,18.87
2023-03-20T06:10:57.971Z,17.83
2023-03-20T06:13:19.607Z,18.33
2023-03-20T06:15:41.122Z,18.70
2023-03-20T06:18:02.726Z,18.90
2023-03-20T06:20:24.850Z,18.80
2023-03-20T06:22:46.768Z,17.43
2023-03-20T06:25:08.604Z,18.57
2023-03-20T06:27:31.304Z,18.43
2023-03-20T06:29:52.778Z,18.07
2023-03-20T06:32:14.821Z,18.57
2023-03-20T06:34:36.589Z,17.00
2023-03-20T06:36:58.021Z,17.23
2023-03-20T06:39:19.457Z,18.17
2023-03-20T06:41:41.111Z,18.70
2023-03-20T06:44:03.906Z,15.83
2023-03-20T06:46:25.490Z,17.40
2023-03-20T06:48:47.306Z,17.13
2023-03-20T06:51:09.127Z,17.60
2023-03-20T06:53:30.911Z,18.73
2023-03-20T06:55:52.720Z,19.17
2023-03-20T06:58:14.545Z,19.43
2023-03-20T07:00:35.991Z,19.00
2023-03-20T07:02:57.527Z,20.00
2023-03-20T07:05:20.461Z,19.97
2023-03-20T07:07:42.133Z,19.73
2023-03-20T07:10:04.674Z,19.67
2023-03-20T07:12:28.692Z,19.37
2023-03-20T07:14:50.142Z,18.77
2023-03-20T07:17:12.773Z,19.80
2023-03-20T07:19:35.005Z,21.03
2023-03-20T07:22:03.705Z,21.00
2023-03-20T07:24:25.181Z,20.57
2023-03-20T07:26:47.074Z,20.80
2023-03-20T07:29:08.504Z,20.63
2023-03-20T07:31:31.226Z,20.00
2023-03-20T07:33:52.766Z,19.93
2023-03-20T07:36:14.374Z,20.93
2023-03-20T07:38:35.783Z,22.20
2023-03-20T07:40:57.239Z,22.40
2023-03-20T07:43:18.737Z,22.30
2023-03-20T07:45:40.293Z,23.37
2023-03-20T07:48:01.814Z,23.23
2023-03-20T07:50:23.315Z,24.87
2023-03-20T07:52:48.641Z,25.00
2023-03-20T07:55:10.182Z,25.17
2023-03-20T07:57:31.858Z,25.03
2023-03-20T07:59:53.469Z,23.97
2023-03-20T08:02:16.285Z,25.40
2023-03-20T08:04:37.799Z,26.97
2023-03-20T08:06:59.481Z,25.90
2023-03-20T08:09:21.093Z,26.50
2023-03-20T08:11:42.625Z,28.23
2023-03-20T08:14:04.064Z,28.00
2023-03-20T08:16:26.033Z,28.60
2023-03-20T08:18:47.577Z,28.20
2023-03-20T08:21:09.601Z,28.43
2023-03-20T08:23:31.123Z,30.63
2023-03-20T08:25:54.248Z,29.23
2023-03-20T08:28:16.301Z,29.23
2023-03-20T08:30:37.990Z,28.63
2023-03-20T08:32:59.621Z,29.23
2023-03-20T08:35:32.536Z,31.33
2023-03-20T08:37:54.568Z,30.63
2023-03-20T08:40:16.966Z,28.40
2023-03-20T08:42:38.764Z,29.40
2023-03-20T08:45:00.389Z,30.40
2023-03-20T08:47:22.377Z,28.60
2023-03-20T08:49:44.064Z,26.97
2023-03-20T08:52:06.077Z,29.10
2023-03-20T08:54:27.672Z,28.43
2023-03-20T08:56:49.207Z,27.83
2023-03-20T08:59:10.770Z,29.57
2023-03-20T09:01:47.836Z,26.70
2023-03-20T09:04:11.912Z,27.30
2023-03-20T09:06:36.898Z,29.63
2023-03-20T09:08:58.331Z,27.97
2023-03-20T09:11:19.771Z,29.20
2023-03-20T09:13:41.519Z,27.53
2023-03-20T09:16:03.734Z,28.17
2023-03-20T09:18:25.718Z,25.27
2023-03-20T09:20:48.348Z,22.87
2023-03-20T09:23:10.077Z,22.83
2023-03-20T09:25:31.500Z,21.13
2023-03-20T09:27:55.377Z,23.20
2023-03-20T09:30:17.169Z,21.73
2023-03-20T09:32:38.672Z,22.50
2023-03-20T09:35:00.342Z,21.57
2023-03-20T09:37:21.856Z,23.23
2023-03-20T09:39:43.351Z,20.80
2023-03-20T09:42:22.307Z,21.87
2023-03-20T09:45:11.162Z,22.70
2023-03-20T09:47:41.954Z,21.37
2023-03-20T09:50:25.874Z,19.63
2023-03-20T09:52:56.162Z,20.30
2023-03-20T09:55:23.331Z,21.37
2023-03-20T09:57:52.523Z,22.50
2023-03-20T10:00:27.527Z,21.87
2023-03-20T10:02:54.365Z,21.20
2023-03-20T10:05:46.201Z,20.97
2023-03-20T10:08:18.944Z,19.67
2023-03-20T10:11:03.530Z,21.15
2023-03-20T10:13:39.303Z,19.05
2023-03-20T10:16:42.627Z,18.70
2023-03-20T10:19:21.256Z,18.83
2023-03-20T10:21:49.473Z,16.23
2023-03-20T10:24:21.221Z,16.20
2023-03-20T10:26:42.970Z,15.57
2023-03-20T10:29:14.684Z,16.90
2023-03-20T10:31:41.581Z,16.83
2023-03-20T10:34:31.748Z,16.43
2023-03-20T10:37:30.473Z,16.48
2023-03-20T10:40:01.004Z,16.10
2023-03-20T10:42:30.513Z,16.48
2023-03-20T10:44:58.591Z,17.23
2023-03-20T10:47:24.496Z,16.27
2023-03-20T10:49:51.834Z,15.93
2023-03-20T10:52:18.163Z,16.60
2023-03-20T10:54:45.172Z,17.07
2023-03-20T10:57:14.934Z,17.40
2023-03-20T10:59:48.939Z,15.57
2023-03-20T11:02:12.817Z,16.13
2023-03-20T11:04:34.262Z,15.52
2023-03-20T11:07:13.922Z,16.23
2023-03-20T11:09:35.503Z,15.88
2023-03-20T11:11:59.227Z,14.20
2023-03-20T11:14:23.442Z,15.20
2023-03-20T11:16:52.066Z,15.05
2023-03-20T11:19:14.550Z,14.23
2023-03-20T11:21:45.813Z,16.30
2023-03-20T11:24:24.097Z,14.55
2023-03-20T11:26:45.583Z,14.98
2023-03-20T11:29:13.317Z,14.10
2023-03-20T11:31:38.412Z,14.30
2023-03-20T11:34:26.587Z,13.02
2023-03-20T11:37:09.766Z,13.02
2023-03-20T11:39:33.101Z,13.25
2023-03-20T11:41:56.910Z,13.32
2023-03-20T11:44:38.498Z,11.77
2023-03-20T11:47:20.571Z,11.55
2023-03-20T11:49:47.917Z,11.10
2023-03-20T11:52:25.009Z,13.93
2023-03-20T11:54:50.441Z,15.38
2023-03-20T11:57:31.287Z,14.30
2023-03-20T11:59:53.386Z,14.20
2023-03-20T12:02:23.639Z,15.68
2023-03-20T12:04:47.439Z,15.57
2023-03-20T12:07:16.341Z,14.55
2023-03-20T12:10:01.400Z,14.10
2023-03-20T12:12:42.097Z,14.15
2023-03-20T12:15:08.149Z,15.57
2023-03-20T12:17:55.831Z,15.38
2023-03-20T12:20:45.073Z,15.07
2023-03-20T12:23:13.105Z,14.73
2023-03-20T12:25:37.594Z,15.15
2023-03-20T12:28:17.930Z,14.98
2023-03-20T12:30:53.857Z,15.13
2023-03-20T12:33:49.343Z,24.48
2023-03-20T12:36:15.127Z,13.82
2023-03-20T12:38:36.683Z,14.75
2023-03-20T12:41:11.868Z,14.48
2023-03-20T12:43:47.516Z,13.98
2023-03-20T12:46:22.732Z,11.75
2023-03-20T12:48:55.860Z,12.35
2023-03-20T12:51:43.094Z,11.50
2023-03-20T12:54:19.670Z,12.05
2023-03-20T12:56:56.538Z,11.55
2023-03-20T12:59:26.544Z,12.05
2023-03-20T13:02:12.536Z,12.38
2023-03-20T13:04:59.464Z,11.63
2023-03-20T13:07:25.947Z,11.98
2023-03-20T13:09:57.287Z,12.13
2023-03-20T13:12:37.452Z,11.35
2023-03-20T13:15:05.290Z,11.95
2023-03-20T13:17:45.506Z,11.88
2023-03-20T13:20:22.118Z,12.90
2023-03-20T13:23:05.100Z,11.52
2023-03-20T13:25:48.986Z,11.40
2023-03-20T13:28:31.035Z,11.48
2023-03-20T13:31:16.570Z,12.02
2023-03-20T13:33:43.456Z,11.85
2023-03-20T13:36:26.677Z,12.43
2023-03-20T13:38:55.691Z,12.35
2023-03-20T13:41:17.556Z,12.40
2023-03-20T13:43:54.248Z,11.95
2023-03-20T13:46:23.886Z,12.52
2023-03-20T13:48:45.868Z,14.80
2023-03-20T13:51:29.323Z,12.50
2023-03-20T13:54:18.167Z,12.57
2023-03-20T13:56:42.542Z,13.07
2023-03-20T13:59:26.909Z,13.15
2023-03-20T14:02:00.943Z,13.15
2023-03-20T14:04:24.664Z,12.88
2023-03-20T14:06:53.042Z,12.60
2023-03-20T14:09:35.720Z,12.93
2023-03-20T14:12:02.287Z,12.38
2023-03-20T14:14:31.143Z,13.27
2023-03-20T14:17:21.064Z,13.63
2023-03-20T14:19:42.762Z,13.90
2023-03-20T14:22:05.482Z,14.20
2023-03-20T14:24:28.320Z,13.35
2023-03-20T14:26:55.266Z,12.70
2023-03-20T14:29:16.645Z,12.35
2023-03-20T14:31:42.262Z,13.80
2023-03-20T14:34:12.807Z,12.82
2023-03-20T14:36:59.373Z,12.45
2023-03-20T14:39:48.405Z,12.57
2023-03-20T14:42:25.225Z,12.85
2023-03-20T14:45:18.377Z,12.25
2023-03-20T14:47:52.578Z,11.60
2023-03-20T14:50:32.943Z,12.05
2023-03-20T14:53:16.294Z,12.52
2023-03-20T14:55:56.088Z,10.82
2023-03-20T14:58:53.313Z,12.48
2023-03-20T15:01:24.724Z,11.50
2023-03-20T15:03:51.433Z,12.35
2023-03-20T15:06:12.996Z,11.75
2023-03-20T15:08:42.180Z,12.32
2023-03-20T15:11:08.910Z,11.18
2023-03-20T15:13:31.112Z,11.75
2023-03-20T15:16:05.317Z,12.15
2023-03-20T15:18:27.834Z,12.82
2023-03-20T15:20:49.422Z,12.95
2023-03-20T15:23:11.041Z,13.48
2023-03-20T15:25:38.493Z,11.20
2023-03-20T15:28:00.161Z,12.35
2023-03-20T15:30:23.111Z,12.00
2023-03-20T15:32:46.095Z,12.18
2023-03-20T15:35:08.500Z,11.98
2023-03-20T15:37:30.028Z,11.80
2023-03-20T15:39:56.236Z,12.02
2023-03-20T15:42:21.886Z,11.48
2023-03-20T15:44:45.758Z,12.05
2023-03-20T15:47:07.153Z,11.85
2023-03-20T15:49:31.094Z,11.57
2023-03-20T15:51:54.523Z,12.10
2023-03-20T15:54:17.949Z,11.23
2023-03-20T15:56:43.188Z,12.00
2023-03-20T15:59:04.676Z,11.13
2023-03-20T16:01:26.540Z,12.07
2023-03-20T16:03:49.392Z,11.43
2023-03-20T16:06:15.374Z,11.77
2023-03-20T16:08:36.931Z,12.67
2023-03-20T16:11:04.678Z,11.70
2023-03-20T16:13:28.621Z,13.20
2023-03-20T16:15:50.951Z,12.50
2023-03-20T16:18:16.538Z,11.00
2023-03-20T16:20:45.102Z,11.90
2023-03-20T16:23:08.858Z,12.50
2023-03-20T16:25:30.593Z,11.50
2023-03-20T16:27:53.364Z,11.10
2023-03-20T16:30:19.025Z,11.63
2023-03-20T16:32:42.679Z,9.97
2023-03-20T16:35:13.545Z,9.10
2023-03-20T16:37:43.632Z,10.20
2023-03-20T16:40:33.969Z,10.37
2023-03-20T16:42:57.247Z,12.43
2023-03-20T16:45:26.562Z,10.40
2023-03-20T16:47:49.054Z,9.03
2023-03-20T16:50:20.256Z,8.37
2023-03-20T16:52:46.641Z,6.50
2023-03-20T16:55:15.911Z,5.53
2023-03-20T16:57:37.648Z,3.87
2023-03-20T17:00:27.379Z,4.40
2023-03-20T17:02:59.748Z,4.23
2023-03-20T17:05:22.125Z,4.80
2023-03-20T17:07:43.601Z,4.47
2023-03-20T17:10:17.216Z,15.20
2023-03-20T17:12:40.764Z,4.33
2023-03-20T17:15:02.255Z,3.30
2023-03-20T17:17:25.108Z,3.30
2023-03-20T17:19:49.344Z,2.60
2023-03-20T17:22:15.063Z,2.53
2023-03-20T17:24:36.470Z,2.70
2023-03-20T17:26:58.261Z,2.57
2023-03-20T17:29:19.724Z,2.40
2023-03-20T17:31:41.269Z,2.07
2023-03-20T17:34:02.701Z,1.80
2023-03-20T17:36:30.577Z,2.30
2023-03-20T17:38:52.839Z,2.07
2023-03-20T17:41:16.300Z,1.97
2023-03-20T17:43:37.741Z,2.20
2023-03-20T17:45:59.419Z,2.07
2023-03-20T17:48:21.578Z,2.20
2023-03-20T17:50:45.559Z,1.80
2023-03-20T17:53:13.762Z,2.20
2023-03-20T17:55:35.381Z,2.03
2023-03-20T17:57:56.903Z,2.00
2023-03-20T18:00:21.293Z,1.90
2023-03-20T18:02:42.856Z,1.93
2023-03-20T18:05:07.776Z,2.00
2023-03-20T18:07:29.351Z,1.83
2023-03-20T18:09:50.790Z,1.90
2023-03-20T18:12:15.794Z,2.00
2023-03-20T18:14:37.805Z,1.90
2023-03-20T18:16:59.235Z,2.00
2023-03-20T18:19:28.309Z,2.80
2023-03-20T18:21:49.787Z,2.20
2023-03-20T18:24:11.255Z,2.43
2023-03-20T18:26:32.751Z,2.37
2023-03-20T18:28:55.291Z,3.10
2023-03-20T18:31:19.134Z,2.40
2023-03-20T18:33:40.723Z,2.80
2023-03-20T18:36:02.405Z,2.60
2023-03-20T18:38:25.643Z,2.30
2023-03-20T18:40:47.578Z,2.40
2023-03-20T18:43:10.859Z,2.43
2023-03-20T18:45:32.654Z,2.10
2023-03-20T18:47:55.565Z,2.37
2023-03-20T18:50:30.604Z,2.10
2023-03-20T18:52:54.076Z,2.40
2023-03-20T18:55:16.266Z,1.90
2023-03-20T18:57:42.991Z,2.07
2023-03-20T19:00:14.561Z,2.10
2023-03-20T19:02:36.049Z,2.00
2023-03-20T19:04:57.544Z,2.50
2023-03-20T19:07:18.994Z,1.97
2023-03-20T19:09:40.620Z,2.20
2023-03-20T19:12:02.074Z,1.80
2023-03-20T19:14:25.738Z,2.10
2023-03-20T19:16:47.273Z,2.10
2023-03-20T19:19:11.866Z,1.90
2023-03-20T19:21:34.765Z,1.90
2023-03-20T19:24:01.300Z,1.97
2023-03-20T19:26:26.924Z,2.00
2023-03-20T19:28:49.084Z,1.60
2023-03-20T19:31:11.054Z,1.90
2023-03-20T19:33:33.350Z,1.80
2023-03-20T19:36:02.711Z,1.90
2023-03-20T19:38:25.379Z,1.77
2023-03-20T19:40:49.350Z,2.10
2023-03-20T19:43:11.313Z,2.00
2023-03-20T19:45:36.065Z,1.60
2023-03-20T19:47:58.028Z,1.83
2023-03-20T19:50:34.728Z,2.10
2023-03-20T19:52:57.647Z,1.83
2023-03-20T19:55:19.117Z,2.00
2023-03-20T19:57:40.653Z,2.03
2023-03-20T20:00:55.005Z,3.00
2023-03-20T20:02:46.076Z,2.33
2023-03-20T20:05:14.535Z,3.93
2023-03-20T20:08:09.074Z,2.00
2023-03-20T20:10:17.704Z,2.40
2023-03-20T20:12:39.238Z,2.40
2023-03-20T20:15:00.737Z,2.77
2023-03-20T20:17:22.183Z,4.20
2023-03-20T20:19:44.251Z,4.40
2023-03-20T20:22:26.009Z,2.57
2023-03-20T20:24:49.187Z,2.10
2023-03-20T20:27:19.331Z,2.10
2023-03-20T20:29:40.946Z,2.37
2023-03-20T20:32:02.569Z,2.33
2023-03-20T20:38:09.102Z,2.23
2023-03-20T20:39:48.198Z,2.60
2023-03-20T20:42:09.726Z,2.50
2023-03-20T20:44:31.292Z,2.10
2023-03-20T20:46:52.789Z,2.70
2023-03-20T20:49:19.585Z,2.20
2023-03-20T20:51:41.545Z,2.70
2023-03-20T20:54:03.029Z,2.13
2023-03-20T20:56:24.551Z,2.37
2023-03-20T20:58:46.050Z,2.77
2023-03-20T21:01:07.525Z,2.87
2023-03-20T21:03:29.181Z,2.70
2023-03-20T21:05:51.135Z,2.63
2023-03-20T21:08:14.166Z,2.87
2023-03-20T21:10:35.908Z,2.73
2023-03-20T21:12:59.794Z,2.70
2023-03-20T21:15:21.761Z,2.43
2023-03-20T21:17:57.853Z,3.00
2023-03-20T21:20:23.676Z,2.83
2023-03-20T21:22:45.397Z,2.70
2023-03-20T21:25:14.992Z,3.00
2023-03-20T21:27:37.064Z,3.10
2023-03-20T21:29:58.514Z,2.80
2023-03-20T21:32:21.109Z,2.80
2023-03-20T21:34:42.865Z,3.10
2023-03-20T21:38:04.006Z,3.07
2023-03-20T21:39:49.461Z,3.00
2023-03-20T21:42:11.438Z,2.77
2023-03-20T21:45:17.851Z,3.17
2023-03-20T21:48:17.224Z,3.00
2023-03-20T21:53:12.566Z,3.30
2023-03-20T21:56:27.748Z,2.90
2023-03-20T21:58:44.345Z,3.90
2023-03-20T22:04:06.314Z,3.50
2023-03-20T22:17:51.384Z,3.00
2023-03-20T22:23:07.532Z,3.37
2023-03-20T22:25:41.474Z,2.73
2023-03-20T22:28:15.651Z,3.20
2023-03-20T22:31:13.311Z,3.17
2023-03-20T22:34:09.219Z,3.30
2023-03-20T22:36:26.708Z,3.17
2023-03-20T22:46:45.208Z,3.03
2023-03-20T22:49:07.911Z,3.37
2023-03-20T22:51:36.825Z,2.50
2023-03-20T22:54:02.832Z,3.07
2023-03-20T22:56:24.582Z,3.37
2023-03-20T22:58:46.434Z,2.87
2023-03-20T23:01:09.323Z,2.87
2023-03-20T23:03:40.829Z,2.97
2023-03-20T23:06:20.308Z,2.90
2023-03-20T23:08:49.327Z,3.20
2023-03-20T23:11:13.933Z,2.90
2023-03-20T23:13:35.845Z,3.73
2023-03-20T23:15:57.324Z,2.80
2023-03-20T23:18:18.873Z,2.90
2023-03-20T23:20:40.916Z,3.33
2023-03-20T23:23:02.378Z,3.37
2023-03-20T23:25:38.162Z,3.10
2023-03-20T23:28:00.977Z,2.70
2023-03-20T23:30:25.319Z,2.93
2023-03-20T23:32:49.022Z,3.00
2023-03-20T23:35:10.892Z,3.00
2023-03-20T23:37:32.964Z,2.83
2023-03-20T23:39:54.424Z,2.80
2023-03-20T23:42:29.611Z,3.33
2023-03-20T23:44:56.324Z,3.00
2023-03-20T23:47:21.263Z,2.87
2023-03-20T23:49:45.849Z,2.87
2023-03-20T23:52:07.777Z,3.20
2023-03-20T23:54:29.485Z,3.30
2023-03-20T23:56:50.976Z,2.67
2023-03-20T23:59:21.079Z,3.20
